Date,TemperatureHighF,TemperatureAvgF,TemperatureLowF,DewpointHighF,DewpointAvgF,DewpointLowF,HumidityHigh,HumidityAvg,HumidityLow,PressureMaxIn,PressureMinIn,WindSpeedMaxMPH,WindSpeedAvgMPH,GustSpeedMaxMPH,PrecipitationSumIn
2013-2-1,41.1,32.6,26.7,33.1,28.6,24.5,95,86,72,30.32,30.07,4,0,6,0.00
2013-2-2,33.5,27.8,23.8,29.3,25.6,22.1,95,91,83,30.35,30.13,3,0,4,0.00
2013-2-3,33.7,29.6,26.2,30.4,27.6,24.7,95,92,86,30.14,29.98,4,0,4,0.00
2013-2-4,39.6,32.4,26.3,33.7,29.8,24.5,96,90,78,30.00,29.81,3,0,3,0.01
2013-2-5,40.3,33.8,28.9,35.3,31.5,27.1,95,91,81,29.81,29.65,2,0,3,0.00
2013-2-6,45.1,34.8,26.5,36.8,31.4,25.3,97,88,69,29.88,29.74,2,0,3,0.01
2013-2-7,49.8,40.2,30.9,36.2,29.0,24.0,95,67,39,29.91,29.71,11,1,13,0.00
2013-2-8,49.4,38.5,25.8,28.0,24.7,21.3,87,60,34,30.03,29.91,12,1,14,0.00
2013-2-9,50.7,38.0,27.9,31.0,27.2,23.9,88,67,45,30.07,29.89,13,1,13,0.00
2013-2-10,49.9,34.9,26.1,31.8,27.2,23.0,92,75,47,30.14,30.02,3,0,3,0.00
2013-2-11,40.3,31.5,24.1,31.2,26.9,21.9,94,83,68,30.09,30.03,7,0,9,0.00
2013-2-12,45.4,35.0,29.2,34.7,30.0,26.3,92,83,63,30.15,29.97,4,0,4,0.00
2013-2-13,54.7,40.4,28.1,36.9,28.2,25.5,95,66,35,30.21,29.97,10,1,14,0.00
2013-2-14,50.4,39.6,32.7,32.8,28.7,25.1,81,66,48,30.37,30.21,4,0,5,0.00
2013-2-15,50.8,36.4,26.6,34.7,28.9,23.9,94,75,52,30.39,30.11,3,0,3,0.00
2013-2-16,53.2,37.2,26.1,37.4,29.5,24.1,94,76,37,30.11,29.79,11,1,17,0.00
2013-2-17,51.3,40.8,31.0,31.1,25.5,21.8,81,57,32,29.95,29.86,12,1,12,0.00
2013-2-18,40.3,33.2,26.7,29.7,26.0,21.9,92,75,62,29.92,29.63,7,0,7,0.00
2013-2-19,48.3,36.0,26.7,29.9,27.0,22.5,89,71,45,29.78,29.60,5,0,7,0.00
2013-2-20,47.6,33.3,21.8,28.7,24.4,19.1,92,72,46,29.86,29.76,3,0,3,0.00
2013-2-21,47.2,34.7,24.9,31.7,27.1,21.5,89,75,49,29.86,29.76,7,0,11,0.00
2013-2-22,44.2,37.0,29.6,38.0,30.4,21.9,91,78,46,29.80,29.43,9,1,14,0.01
2013-2-23,50.3,42.2,34.8,28.9,25.7,22.9,75,53,34,30.09,29.59,15,3,17,0.00
2013-2-24,46.7,39.0,31.9,30.2,26.9,24.2,80,62,48,30.10,29.83,9,0,11,0.00
2013-2-25,51.4,38.9,29.9,35.7,27.9,18.8,93,68,29,30.00,29.71,19,1,22,0.01
2013-2-26,52.3,40.7,28.4,26.3,23.9,21.8,79,53,33,30.12,30.00,7,1,11,0.00
2013-2-27,53.7,39.1,25.9,33.3,27.9,21.7,88,66,41,30.12,30.01,3,0,4,0.00
2013-2-28,41.8,38.4,35.9,38.8,34.9,29.1,94,87,74,30.16,30.06,6,0,7,0.25